LICRLIBC

Guest
Details From LICR - Reggio Calabria
To LIBC - CROTONE
Flight Number -
Tags generated
Created
Modified
Stats Distance 87 nm / 162 km
Max Altitude 0 ft / 0 m
Waypoints 3
Social Downloads 2
Likes 0
Share VATSIM

Download

Looking for another format? Having issues loading an existing format? Contact us
Advertisement - Login to hide

Notes

Basic altitude profile: - Ascent Rate: 2500ft/min - Ascent Speed: 250kts - Cruise Altitude: 35000ft - Cruise Speed: 420kts - Descent Rate: 1500ft/min - Descent Speed: 250kts Options: - Use NATs: yes - Use PACOTS: yes - Use low airways: yes - Use high airways: yes

Route

LICR CRN LIBC

ID Type Via Altitude Latitude Longitude Leg Dist Tot Dist Heading (true) Name
O LICR APT - 0 ft / 0 m 38.07257˚ 15.64932˚ - 0 nm - Reggio Calabria
CRN VOR - 0 ft / 0 m 38.99611˚ 17.08305˚ 87 nm 87 nm 50° / 51° CROTONE VOR-DME
O LIBC APT - 0 ft / 0 m 38.99722˚ 17.08017˚ 0 nm 87 nm 296° / 296° CROTONE

Altitude Profile

Advertisement - Login to hide

LICR

Details ICAO LICR (REG)
Name Reggio Calabria
Region Italy
Timezone Europe/Rome (UTC+1.0)
Stats Elevation 96 ft / 29 m (AMSL)
Location 38.072573° 15.649317°
Runways 2
Magnetic Variation 3.344° E

METAR

LICR 111250Z 15017KT 9999 SCT030 18/11 Q1015

Decode

TAF

TAF LICR 111100Z 1112/1212 16018G28KT 9999 SCT030

Decode

Departure Runways

ID Width Length Bearing (true) Bearing (mag) Surface Threshold Offset Overrun Length
11 148 ft / 45 m 6,123 ft / 1,866 m 111.76° 108.42° Asphalt 203 ft / 62 m 0 ft / 0 m
15 148 ft / 45 m 6,640 ft / 2,024 m 151.90° 148.56° Asphalt 784 ft / 239 m 0 ft / 0 m
29 148 ft / 45 m 6,123 ft / 1,866 m 291.77° 288.43° Asphalt 157 ft / 48 m 0 ft / 0 m
33 148 ft / 45 m 6,640 ft / 2,024 m 331.90° 328.56° Asphalt 659 ft / 201 m 0 ft / 0 m

LIBC

Details ICAO LIBC (CRV)
Name CROTONE
Region Italy
Timezone Europe/Rome (UTC+1.0)
Stats Elevation 521 ft / 159 m (AMSL)
Location 38.997223° 17.080170°
Runways 1
Magnetic Variation 3.627° E

METAR

LIBC 111250Z 19021KT 9999 SCT010 15/13 Q1016

Decode

TAF

TAF AMD LIBC 111206Z 1112/1212 22018KT 9999 SCT030 TEMPO 1112/1117 20020G30KT BECMG 1120/1122 20008KT BECMG 1209/1211 22018KT

Decode

Destination Runways

ID Width Length Bearing (true) Bearing (mag) Surface Threshold Offset Overrun Length
17 148 ft / 45 m 6,572 ft / 2,003 m 168.92° 165.29° Asphalt 525 ft / 160 m 0 ft / 0 m
35 148 ft / 45 m 6,572 ft / 2,003 m 348.92° 345.29° Asphalt 0 ft / 0 m 0 ft / 0 m

Popular Alternatives